Time;durP1;ratioP1;P1;durP2;ratioP2;P2;SDS_P1;SDS_P2;PMS_P1;PMS_P2;Temp;Humidity;BMP_temperature;BMP_pressure;BME280_temperature;BME280_humidity;BME280_pressure;Samples;Min_cycle;Max_cycle;Signal;HPM_P1;HPM_P2
2024/03/04 00:02:14;;;;;;;;;;;;;;;;;;4936215;28;95190;-72
2024/03/04 00:04:39;;;;;;;;;;;;;;;;;;4936899;28;94587;-72
2024/03/04 00:07:04;;;;;;;;;;;;;;;;;;4946514;28;92675;-71
2024/03/04 00:09:30;;;;;;;;;;;;;;;;;;4949374;28;93287;-71
2024/03/04 00:11:55;;;;;;;;;;;;;;;;;;4946564;28;92344;-71
2024/03/04 00:14:20;;;;;;;;;;;;;;;;;;4946041;28;92559;-71
2024/03/04 00:16:48;;;;;;;;;;;;;;;;;;4936728;28;92927;-72
2024/03/04 00:19:14;;;;;;;;;;;;;;;;;;4934185;28;92744;-71
2024/03/04 00:21:40;;;;;;;;;;;;;;;;;;4946980;28;92959;-72
2024/03/04 00:24:06;;;;;;;;;;;;;;;;;;4945679;28;93231;-70
2024/03/04 00:26:31;;;;;;;;;;;;;;;;;;4945268;28;92358;-71
2024/03/04 00:28:56;;;;;;;;;;;;;;;;;;4945281;28;93176;-72
2024/03/04 00:31:21;;;;;;;;;;;;;;;;;;4948811;28;92796;-71
2024/03/04 00:33:47;;;;;;;;;;;;;;;;;;4945883;28;92813;-72
2024/03/04 00:36:12;;;;;;;;;;;;;;;;;;4945917;28;92890;-71
2024/03/04 00:38:37;;;;;;;;;;;;;;;;;;4945902;28;92419;-72
2024/03/04 00:41:02;;;;;;;;;;;;;;;;;;4945882;28;93358;-72
2024/03/04 00:43:28;;;;;;;;;;;;;;;;;;4944234;28;95896;-71
2024/03/04 00:45:53;;;;;;;;;;;;;;;;;;4945915;28;91524;-72
2024/03/04 00:48:18;;;;;;;;;;;;;;;;;;4945938;28;92761;-72
2024/03/04 00:50:43;;;;;;;;;;;;;;;;;;4945854;28;93457;-72
2024/03/04 00:53:08;;;;;;;;;;;;;;;;;;4948238;28;93446;-71
2024/03/04 00:55:33;;;;;;;;;;;;;;;;;;4944861;28;92788;-73
2024/03/04 00:57:59;;;;;;;;;;;;;;;;;;4944386;28;92321;-71
2024/03/04 01:00:24;;;;;;;;;;;;;;;;;;4945480;28;93627;-73
2024/03/04 01:02:49;;;;;;;;;;;;;;;;;;4945909;28;93198;-72
2024/03/04 01:05:15;;;;;;;;;;;;;;;;;;4945301;28;92237;-72
2024/03/04 01:07:40;;;;;;;;;;;;;;;;;;4946030;28;92211;-71
2024/03/04 01:10:06;;;;;;;;;;;;;;;;;;4946199;28;92242;-72
2024/03/04 01:12:32;;;;;;;;;;;;;;;;;;4944346;28;92341;-72
2024/03/04 01:14:57;;;;;;;;;;;;;;;;;;4947232;28;92956;-72
2024/03/04 01:17:23;;;;;;;;;;;;;;;;;;4944446;28;93204;-72
2024/03/04 01:19:48;;;;;;;;;;;;;;;;;;4945164;28;93473;-72
2024/03/04 01:22:16;;;;;;;;;;;;;;;;;;4945586;28;93730;-72
2024/03/04 01:24:43;;;;;;;;;;;;;;;;;;4945440;28;92579;-72
2024/03/04 01:27:08;;;;;;;;;;;;;;;;;;4945554;28;92581;-72
2024/03/04 01:29:33;;;;;;;;;;;;;;;;;;4945091;28;92858;-71
2024/03/04 01:31:59;;;;;;;;;;;;;;;;;;4945464;28;92145;-72
2024/03/04 01:34:24;;;;;;;;;;;;;;;;;;4949231;28;92871;-71
2024/03/04 01:36:50;;;;;;;;;;;;;;;;;;4946219;28;93159;-71
2024/03/04 01:39:15;;;;;;;;;;;;;;;;;;4944992;28;93290;-72
2024/03/04 01:41:40;;;;;;;;;;;;;;;;;;4944397;28;93728;-72
2024/03/04 01:44:06;;;;;;;;;;;;;;;;;;4943233;28;92753;-73
2024/03/04 01:46:32;;;;;;;;;;;;;;;;;;4944689;28;92527;-73
2024/03/04 01:48:57;;;;;;;;;;;;;;;;;;4944699;28;92758;-72
2024/03/04 01:51:22;;;;;;;;;;;;;;;;;;4944797;28;92573;-73
2024/03/04 01:53:48;;;;;;;;;;;;;;;;;;4944166;28;92447;-72
2024/03/04 01:56:13;;;;;;;;;;;;;;;;;;4947449;28;92926;-73
2024/03/04 01:58:41;;;;;;;;;;;;;;;;;;4945484;28;92500;-72
2024/03/04 02:01:06;;;;;;;;;;;;;;;;;;4944228;28;92806;-72
2024/03/04 02:03:32;;;;;;;;;;;;;;;;;;4944601;28;93571;-72
2024/03/04 02:05:58;;;;;;;;;;;;;;;;;;4943326;28;93133;-72
2024/03/04 02:08:24;;;;;;;;;;;;;;;;;;4944226;28;93425;-72
2024/03/04 02:10:49;;;;;;;;;;;;;;;;;;4944633;28;92475;-72
2024/03/04 02:13:14;;;;;;;;;;;;;;;;;;4945122;28;92548;-72
2024/03/04 02:15:40;;;;;;;;;;;;;;;;;;4944232;28;93652;-72
2024/03/04 02:18:05;;;;;;;;;;;;;;;;;;4947860;28;92331;-73
2024/03/04 02:20:32;;;;;;;;;;;;;;;;;;4944412;28;92676;-73
2024/03/04 02:22:57;;;;;;;;;;;;;;;;;;4944948;28;91439;-72
2024/03/04 02:25:23;;;;;;;;;;;;;;;;;;4944061;28;92196;-73
2024/03/04 02:27:48;;;;;;;;;;;;;;;;;;4944285;28;92783;-72
2024/03/04 02:30:13;;;;;;;;;;;;;;;;;;4943079;28;93324;-72
2024/03/04 02:32:39;;;;;;;;;;;;;;;;;;4944751;28;93343;-72
2024/03/04 02:35:04;;;;;;;;;;;;;;;;;;4943879;28;92796;-72
2024/03/04 02:37:31;;;;;;;;;;;;;;;;;;4943062;28;92688;-71
2024/03/04 02:39:57;;;;;;;;;;;;;;;;;;4947347;28;93291;-72
2024/03/04 02:42:22;;;;;;;;;;;;;;;;;;4944335;28;92519;-71
2024/03/04 02:44:47;;;;;;;;;;;;;;;;;;4944557;28;92777;-72
2024/03/04 02:47:12;;;;;;;;;;;;;;;;;;4946349;28;92891;-72
2024/03/04 02:49:37;;;;;;;;;;;;;;;;;;4945310;28;92562;-72
2024/03/04 02:52:03;;;;;;;;;;;;;;;;;;4944623;28;95241;-72
2024/03/04 02:54:28;;;;;;;;;;;;;;;;;;4942738;28;94711;-72
2024/03/04 02:56:55;;;;;;;;;;;;;;;;;;4944498;28;92783;-72
2024/03/04 02:59:20;;;;;;;;;;;;;;;;;;4944613;28;92734;-72
2024/03/04 03:01:48;;;;;;;;;;;;;;;;;;4947375;28;92614;-72
2024/03/04 03:04:14;;;;;;;;;;;;;;;;;;4944400;28;92546;-72
2024/03/04 03:06:40;;;;;;;;;;;;;;;;;;4944296;28;93201;-72
2024/03/04 03:09:06;;;;;;;;;;;;;;;;;;4942878;28;92553;-72
2024/03/04 03:11:31;;;;;;;;;;;;;;;;;;4943703;28;92595;-72
2024/03/04 03:13:57;;;;;;;;;;;;;;;;;;4944036;28;93158;-71
2024/03/04 03:16:22;;;;;;;;;;;;;;;;;;4944291;28;92563;-72
2024/03/04 03:18:48;;;;;;;;;;;;;;;;;;4943357;28;93563;-72
2024/03/04 03:21:14;;;;;;;;;;;;;;;;;;4944097;28;92600;-72
2024/03/04 03:23:49;;;;;;;;;;;;;;;;;;4945193;28;92675;-72
2024/03/04 03:26:15;;;;;;;;;;;;;;;;;;4943609;28;95708;-72
2024/03/04 03:28:43;;;;;;;;;;;;;;;;;;4944422;28;92306;-72
2024/03/04 03:31:08;;;;;;;;;;;;;;;;;;4944562;28;92936;-72
2024/03/04 03:33:34;;;;;;;;;;;;;;;;;;4944126;28;92870;-72
2024/03/04 03:36:00;;;;;;;;;;;;;;;;;;4943244;28;92125;-72
2024/03/04 03:38:26;;;;;;;;;;;;;;;;;;4943723;28;92583;-71
2024/03/04 03:40:51;;;;;;;;;;;;;;;;;;4946069;28;92773;-72
2024/03/04 03:43:19;;;;;;;;;;;;;;;;;;4950647;28;93614;-71
2024/03/04 03:45:44;;;;;;;;;;;;;;;;;;4947353;28;95998;-71
2024/03/04 03:48:10;;;;;;;;;;;;;;;;;;4946291;28;92872;-71
2024/03/04 03:50:35;;;;;;;;;;;;;;;;;;4946811;28;93073;-72
2024/03/04 03:53:01;;;;;;;;;;;;;;;;;;4940500;28;92802;-72
2024/03/04 03:55:26;;;;;;;;;;;;;;;;;;4926930;28;92414;-71
2024/03/04 03:57:51;;;;;;;;;;;;;;;;;;4926633;28;92625;-72
2024/03/04 04:00:17;;;;;;;;;;;;;;;;;;4928154;28;92084;-72
2024/03/04 04:02:42;;;;;;;;;;;;;;;;;;4927330;28;92456;-72
2024/03/04 04:05:07;;;;;;;;;;;;;;;;;;4930120;28;92786;-71
2024/03/04 04:07:32;;;;;;;;;;;;;;;;;;4925650;28;93246;-72
2024/03/04 04:09:57;;;;;;;;;;;;;;;;;;4927146;28;93503;-72
2024/03/04 04:12:23;;;;;;;;;;;;;;;;;;4926679;28;93129;-72
2024/03/04 04:14:48;;;;;;;;;;;;;;;;;;4926192;28;92533;-72
2024/03/04 04:17:13;;;;;;;;;;;;;;;;;;4927336;28;93118;-72
2024/03/04 04:19:39;;;;;;;;;;;;;;;;;;4926798;28;92836;-72
2024/03/04 04:22:04;;;;;;;;;;;;;;;;;;4927308;28;92212;-72
2024/03/04 04:24:29;;;;;;;;;;;;;;;;;;4925990;28;94897;-72
2024/03/04 04:26:55;;;;;;;;;;;;;;;;;;4928718;28;94062;-73
2024/03/04 04:29:20;;;;;;;;;;;;;;;;;;4927621;28;92841;-72
2024/03/04 04:31:45;;;;;;;;;;;;;;;;;;4925915;28;96347;-72
2024/03/04 04:34:10;;;;;;;;;;;;;;;;;;4925147;28;92899;-72
2024/03/04 04:36:35;;;;;;;;;;;;;;;;;;4926453;28;92690;-72
2024/03/04 04:39:01;;;;;;;;;;;;;;;;;;4926005;28;93184;-72
2024/03/04 04:41:27;;;;;;;;;;;;;;;;;;4926724;28;92553;-72
2024/03/04 04:43:52;;;;;;;;;;;;;;;;;;4925210;28;93653;-72
2024/03/04 04:46:17;;;;;;;;;;;;;;;;;;4926624;28;92865;-72
2024/03/04 04:48:42;;;;;;;;;;;;;;;;;;4929700;28;91476;-72
2024/03/04 04:51:08;;;;;;;;;;;;;;;;;;4925902;28;93141;-72
2024/03/04 04:53:33;;;;;;;;;;;;;;;;;;4936604;28;92843;-72
2024/03/04 04:55:58;;;;;;;;;;;;;;;;;;4945079;28;94636;-72
2024/03/04 04:58:23;;;;;;;;;;;;;;;;;;4945712;28;93053;-72
2024/03/04 05:00:48;;;;;;;;;;;;;;;;;;4945891;28;93313;-72
2024/03/04 05:03:14;;;;;;;;;;;;;;;;;;4946031;28;92546;-72
2024/03/04 05:05:39;;;;;;;;;;;;;;;;;;4944175;28;95284;-72
2024/03/04 05:08:07;;;;;;;;;;;;;;;;;;4945913;28;92720;-72
2024/03/04 05:10:37;;;;;;;;;;;;;;;;;;4947352;28;94416;-71
2024/03/04 05:13:02;;;;;;;;;;;;;;;;;;4946172;28;91871;-72
2024/03/04 05:15:27;;;;;;;;;;;;;;;;;;4945549;28;92938;-71
2024/03/04 05:17:55;;;;;;;;;;;;;;;;;;4944504;28;93117;-71
2024/03/04 05:20:21;;;;;;;;;;;;;;;;;;4944772;28;93391;-72
2024/03/04 05:22:46;;;;;;;;;;;;;;;;;;4944515;28;95845;-72
2024/03/04 05:25:11;;;;;;;;;;;;;;;;;;4945087;28;92891;-72
2024/03/04 05:27:37;;;;;;;;;;;;;;;;;;4945919;28;92757;-71
2024/03/04 05:30:03;;;;;;;;;;;;;;;;;;4944755;28;93886;-71
2024/03/04 05:32:28;;;;;;;;;;;;;;;;;;4948486;28;92878;-72
2024/03/04 05:34:53;;;;;;;;;;;;;;;;;;4944444;28;95311;-72
2024/03/04 05:37:19;;;;;;;;;;;;;;;;;;4946374;28;92121;-72
2024/03/04 05:39:44;;;;;;;;;;;;;;;;;;4944327;28;92883;-72
2024/03/04 05:42:10;;;;;;;;;;;;;;;;;;4945674;28;92639;-72
2024/03/04 05:44:35;;;;;;;;;;;;;;;;;;4942098;28;93781;-72
2024/03/04 05:47:00;;;;;;;;;;;;;;;;;;4945625;28;92268;-72
2024/03/04 05:49:26;;;;;;;;;;;;;;;;;;4946844;28;92452;-71
2024/03/04 05:51:52;;;;;;;;;;;;;;;;;;4950966;28;92820;-72
2024/03/04 05:54:17;;;;;;;;;;;;;;;;;;4947928;28;93149;-72
2024/03/04 05:56:43;;;;;;;;;;;;;;;;;;4944307;28;93877;-72
2024/03/04 05:59:09;;;;;;;;;;;;;;;;;;4945112;28;92748;-72
2024/03/04 06:01:34;;;;;;;;;;;;;;;;;;4944377;28;93063;-72
2024/03/04 06:03:59;;;;;;;;;;;;;;;;;;4930651;28;94732;-72
2024/03/04 06:06:25;;;;;;;;;;;;;;;;;;4936362;28;92681;-72
2024/03/04 06:08:50;;;;;;;;;;;;;;;;;;4927589;28;94961;-71
2024/03/04 06:11:16;;;;;;;;;;;;;;;;;;4931350;28;94727;-71
2024/03/04 06:13:41;;;;;;;;;;;;;;;;;;4934063;28;92628;-72
2024/03/04 06:16:06;;;;;;;;;;;;;;;;;;4930053;28;92812;-72
2024/03/04 06:18:31;;;;;;;;;;;;;;;;;;4930449;28;92772;-72
2024/03/04 06:20:56;;;;;;;;;;;;;;;;;;4932823;28;92846;-73
2024/03/04 06:23:22;;;;;;;;;;;;;;;;;;4930264;28;92839;-71
2024/03/04 06:25:47;;;;;;;;;;;;;;;;;;4932521;28;92065;-71
2024/03/04 06:28:13;;;;;;;;;;;;;;;;;;4935174;28;92676;-71
2024/03/04 06:30:38;;;;;;;;;;;;;;;;;;4927198;28;94282;-71
2024/03/04 06:33:03;;;;;;;;;;;;;;;;;;4937945;28;93622;-72
2024/03/04 06:35:29;;;;;;;;;;;;;;;;;;4933895;28;93410;-71
2024/03/04 06:37:54;;;;;;;;;;;;;;;;;;4935306;28;93030;-71
2024/03/04 06:40:19;;;;;;;;;;;;;;;;;;4937939;28;93905;-71
2024/03/04 06:42:44;;;;;;;;;;;;;;;;;;4929382;28;95348;-72
2024/03/04 06:45:10;;;;;;;;;;;;;;;;;;4938605;28;93242;-71
2024/03/04 06:47:35;;;;;;;;;;;;;;;;;;4937369;28;93048;-72
2024/03/04 06:50:00;;;;;;;;;;;;;;;;;;4932429;28;91997;-70
2024/03/04 06:52:27;;;;;;;;;;;;;;;;;;4930200;28;92925;-71
2024/03/04 06:54:52;;;;;;;;;;;;;;;;;;4937334;28;94324;-70
2024/03/04 06:57:17;;;;;;;;;;;;;;;;;;4938968;28;94274;-69
2024/03/04 06:59:43;;;;;;;;;;;;;;;;;;4939417;28;93626;-69
2024/03/04 07:02:08;;;;;;;;;;;;;;;;;;4938912;28;93237;-68
2024/03/04 07:04:33;;;;;;;;;;;;;;;;;;4937685;28;92407;-70
2024/03/04 07:06:59;;;;;;;;;;;;;;;;;;4934216;28;92808;-70
2024/03/04 07:09:25;;;;;;;;;;;;;;;;;;4937175;28;93634;-70
2024/03/04 07:11:50;;;;;;;;;;;;;;;;;;4931499;28;92807;-68
2024/03/04 07:14:15;;;;;;;;;;;;;;;;;;4938794;28;92801;-71
2024/03/04 07:16:40;;;;;;;;;;;;;;;;;;4942571;28;93070;-70
2024/03/04 07:19:05;;;;;;;;;;;;;;;;;;4941090;28;92577;-70
2024/03/04 07:21:31;;;;;;;;;;;;;;;;;;4943347;28;94372;-69
2024/03/04 07:23:56;;;;;;;;;;;;;;;;;;4941860;28;92339;-69
2024/03/04 07:26:21;;;;;;;;;;;;;;;;;;4940995;28;93574;-70
2024/03/04 07:28:46;;;;;;;;;;;;;;;;;;4939970;28;92517;-69
2024/03/04 07:31:11;;;;;;;;;;;;;;;;;;4940340;28;92713;-68
2024/03/04 07:33:37;;;;;;;;;;;;;;;;;;4942105;28;95221;-70
2024/03/04 07:36:02;;;;;;;;;;;;;;;;;;4941007;28;92966;-70
2024/03/04 07:38:28;;;;;;;;;;;;;;;;;;4945323;28;92024;-71
2024/03/04 07:40:53;;;;;;;;;;;;;;;;;;4940536;28;92277;-70
2024/03/04 07:43:18;;;;;;;;;;;;;;;;;;4938119;28;92248;-72
2024/03/04 07:45:44;;;;;;;;;;;;;;;;;;4941316;28;94059;-72
2024/03/04 07:48:09;;;;;;;;;;;;;;;;;;4940668;28;93345;-71
2024/03/04 07:50:34;;;;;;;;;;;;;;;;;;4938489;28;93551;-71
2024/03/04 07:52:59;;;;;;;;;;;;;;;;;;4940788;28;96428;-72
2024/03/04 07:55:25;;;;;;;;;;;;;;;;;;4940062;28;93685;-71
2024/03/04 07:57:50;;;;;;;;;;;;;;;;;;4935885;28;92800;-72
2024/03/04 08:00:15;;;;;;;;;;;;;;;;;;4941582;28;94806;-70
2024/03/04 08:02:44;;;;;;;;;;;;;;;;;;4936957;28;91798;-71
2024/03/04 08:05:10;;;;;;;;;;;;;;;;;;4936602;28;92168;-70
2024/03/04 08:07:38;;;;;;;;;;;;;;;;;;4941851;28;92974;-70
2024/03/04 08:10:06;;;;;;;;;;;;;;;;;;4938909;28;93830;-72
2024/03/04 08:12:32;;;;;;;;;;;;;;;;;;4941884;28;94617;-71
2024/03/04 08:14:57;;;;;;;;;;;;;;;;;;4939307;28;92907;-71
2024/03/04 08:17:22;;;;;;;;;;;;;;;;;;4939794;28;92773;-70
2024/03/04 08:19:48;;;;;;;;;;;;;;;;;;4935440;28;92470;-70
2024/03/04 08:22:13;;;;;;;;;;;;;;;;;;4936789;28;93502;-71
2024/03/04 08:24:42;;;;;;;;;;;;;;;;;;4937073;28;92898;-71
2024/03/04 08:27:07;;;;;;;;;;;;;;;;;;4937845;28;93297;-70
2024/03/04 08:29:34;;;;;;;;;;;;;;;;;;4932655;28;92564;-71
2024/03/04 08:31:59;;;;;;;;;;;;;;;;;;4935717;28;92609;-70
2024/03/04 08:34:24;;;;;;;;;;;;;;;;;;4932771;28;93907;-70
2024/03/04 08:36:49;;;;;;;;;;;;;;;;;;4936704;28;93641;-70
2024/03/04 08:39:16;;;;;;;;;;;;;;;;;;4937940;28;93019;-71
2024/03/04 08:41:48;;;;;;;;;;;;;;;;;;4937440;28;92812;-71
2024/03/04 08:44:13;;;;;;;;;;;;;;;;;;4940923;28;92374;-70
2024/03/04 08:46:39;;;;;;;;;;;;;;;;;;4940622;28;93134;-71
2024/03/04 08:49:04;;;;;;;;;;;;;;;;;;4940059;28;92521;-71
2024/03/04 08:51:29;;;;;;;;;;;;;;;;;;4938875;28;92499;-71
2024/03/04 08:53:56;;;;;;;;;;;;;;;;;;4934978;28;93096;-70
2024/03/04 08:56:21;;;;;;;;;;;;;;;;;;4939903;28;92731;-71
2024/03/04 08:58:46;;;;;;;;;;;;;;;;;;4942932;28;95468;-71
2024/03/04 09:01:11;;;;;;;;;;;;;;;;;;4939637;28;92900;-71
2024/03/04 09:03:38;;;;;;;;;;;;;;;;;;4934418;28;92588;-71
2024/03/04 09:06:04;;;;;;;;;;;;;;;;;;4946887;28;93142;-72
2024/03/04 09:08:29;;;;;;;;;;;;;;;;;;4940409;28;92671;-71
2024/03/04 09:10:56;;;;;;;;;;;;;;;;;;4937659;28;93037;-69
2024/03/04 09:13:21;;;;;;;;;;;;;;;;;;4936112;28;95284;-72
2024/03/04 09:15:46;;;;;;;;;;;;;;;;;;4942670;28;92368;-71
2024/03/04 09:18:12;;;;;;;;;;;;;;;;;;4939745;28;93188;-70
2024/03/04 09:20:38;;;;;;;;;;;;;;;;;;4937547;28;93222;-71
2024/03/04 09:23:03;;;;;;;;;;;;;;;;;;4930528;28;93635;-71
2024/03/04 09:25:28;;;;;;;;;;;;;;;;;;4938706;28;93474;-72
2024/03/04 09:27:53;;;;;;;;;;;;;;;;;;4940577;28;92783;-72
2024/03/04 09:30:19;;;;;;;;;;;;;;;;;;4940583;28;92699;-71
2024/03/04 09:32:44;;;;;;;;;;;;;;;;;;4941973;28;93776;-72
2024/03/04 09:35:11;;;;;;;;;;;;;;;;;;4942342;28;93041;-73
2024/03/04 09:37:36;;;;;;;;;;;;;;;;;;4933278;28;96728;-70
2024/03/04 09:40:04;;;;;;;;;;;;;;;;;;4941758;28;94883;-71
2024/03/04 09:42:32;;;;;;;;;;;;;;;;;;4938164;28;92803;-71
2024/03/04 09:44:58;;;;;;;;;;;;;;;;;;4933921;28;94982;-71
2024/03/04 09:47:23;;;;;;;;;;;;;;;;;;4939610;28;93790;-71
2024/03/04 09:49:51;;;;;;;;;;;;;;;;;;4940983;28;92266;-70
2024/03/04 09:52:17;;;;;;;;;;;;;;;;;;4934280;28;95486;-71
2024/03/04 09:54:43;;;;;;;;;;;;;;;;;;4943253;28;92693;-71
2024/03/04 09:57:08;;;;;;;;;;;;;;;;;;4936289;28;94200;-70
2024/03/04 09:59:34;;;;;;;;;;;;;;;;;;4931998;28;94323;-69
2024/03/04 10:02:01;;;;;;;;;;;;;;;;;;4938704;28;92711;-71
2024/03/04 10:04:27;;;;;;;;;;;;;;;;;;4930865;28;92595;-70
2024/03/04 10:06:52;;;;;;;;;;;;;;;;;;4944340;28;92896;-71
2024/03/04 10:09:17;;;;;;;;;;;;;;;;;;4941433;28;92815;-71
2024/03/04 10:11:43;;;;;;;;;;;;;;;;;;4938293;28;94054;-71
2024/03/04 10:14:08;;;;;;;;;;;;;;;;;;4941608;28;92167;-71
2024/03/04 10:16:34;;;;;;;;;;;;;;;;;;4941883;28;92930;-71
2024/03/04 10:19:03;;;;;;;;;;;;;;;;;;4934476;28;93121;-69
2024/03/04 10:21:28;;;;;;;;;;;;;;;;;;4933795;28;92233;-70
2024/03/04 10:23:55;;;;;;;;;;;;;;;;;;4938327;28;92831;-70
2024/03/04 10:26:21;;;;;;;;;;;;;;;;;;4938791;28;92862;-71
2024/03/04 10:28:46;;;;;;;;;;;;;;;;;;4939140;28;91868;-71
2024/03/04 10:31:12;;;;;;;;;;;;;;;;;;4939118;28;92589;-71
2024/03/04 10:33:39;;;;;;;;;;;;;;;;;;4941366;28;92723;-70
2024/03/04 10:36:15;;;;;;;;;;;;;;;;;;4935804;28;95387;-72
2024/03/04 10:38:43;;;;;;;;;;;;;;;;;;4937239;28;92944;-72
2024/03/04 10:41:19;;;;;;;;;;;;;;;;;;4934973;28;92472;-71
2024/03/04 10:43:44;;;;;;;;;;;;;;;;;;4936149;28;92650;-72
2024/03/04 10:46:10;;;;;;;;;;;;;;;;;;4939735;28;92838;-72
2024/03/04 10:48:36;;;;;;;;;;;;;;;;;;4934867;28;93380;-72
2024/03/04 10:51:02;;;;;;;;;;;;;;;;;;4936200;28;92633;-73
2024/03/04 10:53:27;;;;;;;;;;;;;;;;;;4935110;28;92214;-73
2024/03/04 10:55:54;;;;;;;;;;;;;;;;;;4935938;28;92612;-71
2024/03/04 10:58:21;;;;;;;;;;;;;;;;;;4930001;28;92394;-74
2024/03/04 11:00:48;;;;;;;;;;;;;;;;;;4934006;28;93773;-71
2024/03/04 11:03:16;;;;;;;;;;;;;;;;;;4931751;28;93312;-70
2024/03/04 11:05:50;;;;;;;;;;;;;;;;;;4940679;28;93808;-72
2024/03/04 11:08:27;;;;;;;;;;;;;;;;;;4938556;28;92676;-72
2024/03/04 11:11:02;;;;;;;;;;;;;;;;;;4935191;28;93230;-72
2024/03/04 11:13:47;;;;;;;;;;;;;;;;;;4934312;28;92981;-70
2024/03/04 11:16:19;;;;;;;;;;;;;;;;;;4937974;28;92884;-69
2024/03/04 11:18:58;;;;;;;;;;;;;;;;;;4938264;28;92185;-70
2024/03/04 11:21:25;;;;;;;;;;;;;;;;;;4934773;28;92559;-73
2024/03/04 11:23:51;;;;;;;;;;;;;;;;;;4930525;28;93010;-71
2024/03/04 11:26:17;;;;;;;;;;;;;;;;;;4933882;28;94635;-72
2024/03/04 11:28:43;;;;;;;;;;;;;;;;;;4930495;28;92648;-69
2024/03/04 11:31:21;;;;;;;;;;;;;;;;;;4935519;28;94168;-69
2024/03/04 11:33:46;;;;;;;;;;;;;;;;;;4940906;28;95763;-69
2024/03/04 11:36:12;;;;;;;;;;;;;;;;;;4940166;28;92247;-70
2024/03/04 11:38:41;;;;;;;;;;;;;;;;;;4939727;28;92910;-69
2024/03/04 11:41:07;;;;;;;;;;;;;;;;;;4930212;28;92391;-69
2024/03/04 11:43:42;;;;;;;;;;;;;;;;;;4935471;28;92669;-69
2024/03/04 11:46:11;;;;;;;;;;;;;;;;;;4932455;28;93669;-69
2024/03/04 11:48:36;;;;;;;;;;;;;;;;;;4937771;28;92447;-69
2024/03/04 11:51:02;;;;;;;;;;;;;;;;;;4933509;28;93585;-71
2024/03/04 11:53:28;;;;;;;;;;;;;;;;;;4929706;28;92866;-72
2024/03/04 11:55:54;;;;;;;;;;;;;;;;;;4936278;28;92564;-72
2024/03/04 11:58:20;;;;;;;;;;;;;;;;;;4941866;28;95712;-73
2024/03/04 12:00:47;;;;;;;;;;;;;;;;;;4942562;28;92598;-73
2024/03/04 12:03:14;;;;;;;;;;;;;;;;;;4936087;28;92927;-71
2024/03/04 12:05:40;;;;;;;;;;;;;;;;;;4940855;28;95373;-69
2024/03/04 12:08:06;;;;;;;;;;;;;;;;;;4938120;28;92389;-70
2024/03/04 12:10:32;;;;;;;;;;;;;;;;;;4940120;28;92686;-71
2024/03/04 12:12:58;;;;;;;;;;;;;;;;;;4936754;28;93195;-70
2024/03/04 12:15:23;;;;;;;;;;;;;;;;;;4934669;28;93632;-69
2024/03/04 12:17:48;;;;;;;;;;;;;;;;;;4939857;28;93301;-71
2024/03/04 12:20:14;;;;;;;;;;;;;;;;;;4943553;28;96225;-69
2024/03/04 12:22:39;;;;;;;;;;;;;;;;;;4938682;28;94605;-72
2024/03/04 12:25:09;;;;;;;;;;;;;;;;;;4945212;28;93148;-72
2024/03/04 12:27:35;;;;;;;;;;;;;;;;;;4942074;28;94146;-73
2024/03/04 12:30:10;;;;;;;;;;;;;;;;;;4941821;28;92525;-68
2024/03/04 12:32:35;;;;;;;;;;;;;;;;;;4938397;28;92053;-68
2024/03/04 12:35:00;;;;;;;;;;;;;;;;;;4938143;28;92220;-70
2024/03/04 12:37:29;;;;;;;;;;;;;;;;;;4941161;28;93487;-70
2024/03/04 12:39:55;;;;;;;;;;;;;;;;;;4940585;28;94645;-71
2024/03/04 12:42:20;;;;;;;;;;;;;;;;;;4944222;28;93230;-69
2024/03/04 12:44:45;;;;;;;;;;;;;;;;;;4938544;28;93829;-72
2024/03/04 12:47:12;;;;;;;;;;;;;;;;;;4938715;28;94017;-71
2024/03/04 12:49:39;;;;;;;;;;;;;;;;;;4942209;28;93806;-70
2024/03/04 12:52:04;;;;;;;;;;;;;;;;;;4939934;28;92821;-70
2024/03/04 12:54:33;;;;;;;;;;;;;;;;;;4937290;28;93323;-69
2024/03/04 12:56:58;;;;;;;;;;;;;;;;;;4939780;28;93815;-72
2024/03/04 12:59:23;;;;;;;;;;;;;;;;;;4942337;28;93018;-69
2024/03/04 13:01:49;;;;;;;;;;;;;;;;;;4940723;28;92810;-71
2024/03/04 13:04:14;;;;;;;;;;;;;;;;;;4939011;28;95148;-72
2024/03/04 13:06:40;;;;;;;;;;;;;;;;;;4938584;28;92658;-72
2024/03/04 13:09:05;;;;;;;;;;;;;;;;;;4940374;28;92924;-72
2024/03/04 13:11:30;;;;;;;;;;;;;;;;;;4931280;28;94691;-72
2024/03/04 13:13:55;;;;;;;;;;;;;;;;;;4935731;28;93271;-71
2024/03/04 13:16:21;;;;;;;;;;;;;;;;;;4938560;28;93621;-71
2024/03/04 13:18:46;;;;;;;;;;;;;;;;;;4938767;28;93372;-71
2024/03/04 13:21:12;;;;;;;;;;;;;;;;;;4942379;28;91577;-70
2024/03/04 13:23:37;;;;;;;;;;;;;;;;;;4941111;28;93239;-70
2024/03/04 13:26:03;;;;;;;;;;;;;;;;;;4945180;28;93714;-68
2024/03/04 13:28:28;;;;;;;;;;;;;;;;;;4934410;28;93809;-69
2024/03/04 13:30:54;;;;;;;;;;;;;;;;;;4943256;28;95422;-69
2024/03/04 13:33:20;;;;;;;;;;;;;;;;;;4925643;28;93025;-70
2024/03/04 13:35:45;;;;;;;;;;;;;;;;;;4937697;28;93171;-70
2024/03/04 13:38:10;;;;;;;;;;;;;;;;;;4937654;28;93287;-70
2024/03/04 13:40:36;;;;;;;;;;;;;;;;;;4938106;28;93542;-70
2024/03/04 13:43:03;;;;;;;;;;;;;;;;;;4937601;28;92789;-70
2024/03/04 13:45:28;;;;;;;;;;;;;;;;;;4939395;28;92011;-69
2024/03/04 13:47:53;;;;;;;;;;;;;;;;;;4942854;28;92789;-71
2024/03/04 13:50:19;;;;;;;;;;;;;;;;;;4937310;28;92753;-70
2024/03/04 13:52:44;;;;;;;;;;;;;;;;;;4933981;28;93185;-71
2024/03/04 13:55:09;;;;;;;;;;;;;;;;;;4938044;28;95615;-71
2024/03/04 13:57:34;;;;;;;;;;;;;;;;;;4929109;28;92902;-70
2024/03/04 13:59:59;;;;;;;;;;;;;;;;;;4931781;28;93021;-71
2024/03/04 14:02:26;;;;;;;;;;;;;;;;;;4933424;28;93310;-71
2024/03/04 14:04:52;;;;;;;;;;;;;;;;;;4931436;28;96540;-70
2024/03/04 14:07:17;;;;;;;;;;;;;;;;;;4941231;28;92232;-70
2024/03/04 14:09:42;;;;;;;;;;;;;;;;;;4939086;28;92040;-71
2024/03/04 14:12:07;;;;;;;;;;;;;;;;;;4941987;28;92915;-70
2024/03/04 14:14:32;;;;;;;;;;;;;;;;;;4938647;28;92718;-69
2024/03/04 14:16:58;;;;;;;;;;;;;;;;;;4937587;28;95068;-70
2024/03/04 14:19:23;;;;;;;;;;;;;;;;;;4936833;28;92818;-71
2024/03/04 14:21:48;;;;;;;;;;;;;;;;;;4939540;28;92292;-70
2024/03/04 14:24:13;;;;;;;;;;;;;;;;;;4934300;28;93290;-72
2024/03/04 14:26:39;;;;;;;;;;;;;;;;;;4939252;28;92826;-72
2024/03/04 14:29:04;;;;;;;;;;;;;;;;;;4942974;28;92707;-72
2024/03/04 14:31:29;;;;;;;;;;;;;;;;;;4939264;28;92187;-71
2024/03/04 14:33:55;;;;;;;;;;;;;;;;;;4945179;28;92232;-70
2024/03/04 14:36:20;;;;;;;;;;;;;;;;;;4938270;28;93695;-70
2024/03/04 14:38:46;;;;;;;;;;;;;;;;;;4938245;28;92227;-70
2024/03/04 14:41:15;;;;;;;;;;;;;;;;;;4937316;28;93473;-69
2024/03/04 14:43:40;;;;;;;;;;;;;;;;;;4934444;28;93826;-71
2024/03/04 14:46:05;;;;;;;;;;;;;;;;;;4937960;28;93652;-70
2024/03/04 14:48:30;;;;;;;;;;;;;;;;;;4935532;28;93324;-70
2024/03/04 14:50:56;;;;;;;;;;;;;;;;;;4937643;28;93013;-70
2024/03/04 14:53:21;;;;;;;;;;;;;;;;;;4936577;28;93587;-72
2024/03/04 14:55:47;;;;;;;;;;;;;;;;;;4939977;28;92959;-70
2024/03/04 14:58:12;;;;;;;;;;;;;;;;;;4932759;28;91646;-70
2024/03/04 15:00:37;;;;;;;;;;;;;;;;;;4933660;28;93303;-70
2024/03/04 15:03:03;;;;;;;;;;;;;;;;;;4938341;28;92903;-69
2024/03/04 15:05:29;;;;;;;;;;;;;;;;;;4934775;28;93196;-70
2024/03/04 15:07:54;;;;;;;;;;;;;;;;;;4942031;28;93957;-72
2024/03/04 15:10:19;;;;;;;;;;;;;;;;;;4938878;28;92987;-71
2024/03/04 15:12:45;;;;;;;;;;;;;;;;;;4938334;28;93046;-72
2024/03/04 15:15:22;;;;;;;;;;;;;;;;;;4933310;28;95460;-72
2024/03/04 15:17:48;;;;;;;;;;;;;;;;;;4934482;28;92457;-69
2024/03/04 15:20:21;;;;;;;;;;;;;;;;;;4927217;28;92889;-70
2024/03/04 15:22:46;;;;;;;;;;;;;;;;;;4942489;28;92810;-70
2024/03/04 15:25:14;;;;;;;;;;;;;;;;;;4932617;28;93181;-71
2024/03/04 15:27:40;;;;;;;;;;;;;;;;;;4940703;28;93580;-70
2024/03/04 15:30:09;;;;;;;;;;;;;;;;;;4936035;28;93623;-69
2024/03/04 15:32:35;;;;;;;;;;;;;;;;;;4941100;28;92907;-72
2024/03/04 15:35:02;;;;;;;;;;;;;;;;;;4932531;28;92314;-69
2024/03/04 15:37:29;;;;;;;;;;;;;;;;;;4938358;28;93065;-69
2024/03/04 15:39:54;;;;;;;;;;;;;;;;;;4934668;28;95271;-69
2024/03/04 15:42:19;;;;;;;;;;;;;;;;;;4938012;28;92604;-71
2024/03/04 15:44:44;;;;;;;;;;;;;;;;;;4938899;28;92658;-71
2024/03/04 15:47:09;;;;;;;;;;;;;;;;;;4938338;28;92667;-70
2024/03/04 15:49:37;;;;;;;;;;;;;;;;;;4938254;28;95518;-69
2024/03/04 15:52:02;;;;;;;;;;;;;;;;;;4940202;28;92598;-70
2024/03/04 15:54:27;;;;;;;;;;;;;;;;;;4941073;28;93569;-71
2024/03/04 15:56:53;;;;;;;;;;;;;;;;;;4944291;28;92945;-70
2024/03/04 15:59:18;;;;;;;;;;;;;;;;;;4936423;28;92752;-72
2024/03/04 16:01:43;;;;;;;;;;;;;;;;;;4939350;28;92880;-72
2024/03/04 16:04:08;;;;;;;;;;;;;;;;;;4929612;28;92832;-72
2024/03/04 16:06:33;;;;;;;;;;;;;;;;;;4945850;28;93096;-72
2024/03/04 16:08:59;;;;;;;;;;;;;;;;;;4940835;28;92788;-71
2024/03/04 16:11:25;;;;;;;;;;;;;;;;;;4939247;28;91784;-70
2024/03/04 16:13:50;;;;;;;;;;;;;;;;;;4931740;28;94231;-70
2024/03/04 16:16:15;;;;;;;;;;;;;;;;;;4943271;28;93808;-69
2024/03/04 16:18:41;;;;;;;;;;;;;;;;;;4938830;28;93499;-69
2024/03/04 16:21:06;;;;;;;;;;;;;;;;;;4939795;28;92951;-69
2024/03/04 16:23:31;;;;;;;;;;;;;;;;;;4936899;28;92944;-69
2024/03/04 16:25:56;;;;;;;;;;;;;;;;;;4937521;28;93203;-69
2024/03/04 16:28:22;;;;;;;;;;;;;;;;;;4941078;28;93104;-70
2024/03/04 16:30:48;;;;;;;;;;;;;;;;;;4938191;28;92941;-70
2024/03/04 16:33:13;;;;;;;;;;;;;;;;;;4940399;28;95503;-70
2024/03/04 16:35:38;;;;;;;;;;;;;;;;;;4929900;28;92291;-71
2024/03/04 16:38:04;;;;;;;;;;;;;;;;;;4932727;28;92859;-70